sensor_id;sensor_type;location;lat;lon;timestamp;pressure;altitude;pressure_sealevel;temperature
71205;BMP180;58935;54.498;18.544;2023-09-30T00:01:49;100427.40;;;19.00
71205;BMP180;58935;54.498;18.544;2023-09-30T00:04:17;100433.20;;;19.00
71205;BMP180;58935;54.498;18.544;2023-09-30T00:06:42;100432.80;;;18.90
71205;BMP180;58935;54.498;18.544;2023-09-30T00:09:08;100428.80;;;18.90
71205;BMP180;58935;54.498;18.544;2023-09-30T00:11:33;100427.40;;;18.90
71205;BMP180;58935;54.498;18.544;2023-09-30T00:13:58;100423.80;;;18.90
71205;BMP180;58935;54.498;18.544;2023-09-30T00:16:23;100427.00;;;18.82
71205;BMP180;58935;54.498;18.544;2023-09-30T00:18:48;100434.20;;;18.80
71205;BMP180;58935;54.498;18.544;2023-09-30T00:21:14;100432.60;;;18.80
71205;BMP180;58935;54.498;18.544;2023-09-30T00:23:40;100436.60;;;18.80
71205;BMP180;58935;54.498;18.544;2023-09-30T00:26:05;100428.60;;;18.70
71205;BMP180;58935;54.498;18.544;2023-09-30T00:28:31;100433.00;;;18.70
71205;BMP180;58935;54.498;18.544;2023-09-30T00:30:56;100429.60;;;18.70
71205;BMP180;58935;54.498;18.544;2023-09-30T00:33:21;100429.60;;;18.60
71205;BMP180;58935;54.498;18.544;2023-09-30T00:35:46;100436.40;;;18.60
71205;BMP180;58935;54.498;18.544;2023-09-30T00:38:12;100433.80;;;18.60
71205;BMP180;58935;54.498;18.544;2023-09-30T00:40:37;100421.00;;;18.50
71205;BMP180;58935;54.498;18.544;2023-09-30T00:43:02;100424.60;;;18.50
71205;BMP180;58935;54.498;18.544;2023-09-30T00:45:29;100425.60;;;18.50
71205;BMP180;58935;54.498;18.544;2023-09-30T00:47:55;100419.00;;;18.48
71205;BMP180;58935;54.498;18.544;2023-09-30T00:50:21;100416.20;;;18.42
71205;BMP180;58935;54.498;18.544;2023-09-30T00:52:47;100415.60;;;18.40
71205;BMP180;58935;54.498;18.544;2023-09-30T00:55:14;100423.60;;;18.40
71205;BMP180;58935;54.498;18.544;2023-09-30T00:57:40;100419.60;;;18.40
71205;BMP180;58935;54.498;18.544;2023-09-30T01:00:07;100421.20;;;18.40
71205;BMP180;58935;54.498;18.544;2023-09-30T01:02:37;100425.80;;;18.40
71205;BMP180;58935;54.498;18.544;2023-09-30T01:05:03;100428.00;;;18.40
71205;BMP180;58935;54.498;18.544;2023-09-30T01:07:30;100425.80;;;18.40
71205;BMP180;58935;54.498;18.544;2023-09-30T01:09:55;100419.60;;;18.40
71205;BMP180;58935;54.498;18.544;2023-09-30T01:12:21;100417.00;;;18.44
71205;BMP180;58935;54.498;18.544;2023-09-30T01:14:46;100423.60;;;18.50
71205;BMP180;58935;54.498;18.544;2023-09-30T01:17:11;100416.60;;;18.50
71205;BMP180;58935;54.498;18.544;2023-09-30T01:19:40;100411.00;;;18.50
71205;BMP180;58935;54.498;18.544;2023-09-30T01:22:05;100414.20;;;18.50
71205;BMP180;58935;54.498;18.544;2023-09-30T01:24:38;100408.00;;;18.50
71205;BMP180;58935;54.498;18.544;2023-09-30T01:27:04;100414.00;;;18.50
71205;BMP180;58935;54.498;18.544;2023-09-30T01:29:29;100417.00;;;18.50
71205;BMP180;58935;54.498;18.544;2023-09-30T01:31:54;100422.20;;;18.50
71205;BMP180;58935;54.498;18.544;2023-09-30T01:34:21;100418.60;;;18.50
71205;BMP180;58935;54.498;18.544;2023-09-30T01:36:46;100423.80;;;18.50
71205;BMP180;58935;54.498;18.544;2023-09-30T01:39:12;100414.00;;;18.50
71205;BMP180;58935;54.498;18.544;2023-09-30T01:41:39;100411.60;;;18.50
71205;BMP180;58935;54.498;18.544;2023-09-30T01:44:05;100418.20;;;18.50
71205;BMP180;58935;54.498;18.544;2023-09-30T01:46:30;100419.60;;;18.50
71205;BMP180;58935;54.498;18.544;2023-09-30T01:48:56;100418.60;;;18.50
71205;BMP180;58935;54.498;18.544;2023-09-30T01:51:21;100411.80;;;18.50
71205;BMP180;58935;54.498;18.544;2023-09-30T01:53:47;100411.80;;;18.44
71205;BMP180;58935;54.498;18.544;2023-09-30T01:56:12;100405.80;;;18.40
71205;BMP180;58935;54.498;18.544;2023-09-30T01:58:38;100397.40;;;18.40
71205;BMP180;58935;54.498;18.544;2023-09-30T02:01:03;100398.80;;;18.40
71205;BMP180;58935;54.498;18.544;2023-09-30T02:03:29;100407.20;;;18.40
71205;BMP180;58935;54.498;18.544;2023-09-30T02:05:55;100417.20;;;18.40
71205;BMP180;58935;54.498;18.544;2023-09-30T02:08:21;100417.40;;;18.40
71205;BMP180;58935;54.498;18.544;2023-09-30T02:10:47;100412.60;;;18.34
71205;BMP180;58935;54.498;18.544;2023-09-30T02:13:13;100414.20;;;18.30
71205;BMP180;58935;54.498;18.544;2023-09-30T02:15:40;100420.00;;;18.30
71205;BMP180;58935;54.498;18.544;2023-09-30T02:18:06;100422.40;;;18.30
71205;BMP180;58935;54.498;18.544;2023-09-30T02:20:32;100425.40;;;18.30
71205;BMP180;58935;54.498;18.544;2023-09-30T02:22:59;100429.80;;;18.30
71205;BMP180;58935;54.498;18.544;2023-09-30T02:25:24;100427.20;;;18.26
71205;BMP180;58935;54.498;18.544;2023-09-30T02:27:50;100426.00;;;18.20
71205;BMP180;58935;54.498;18.544;2023-09-30T02:30:15;100432.20;;;18.22
71205;BMP180;58935;54.498;18.544;2023-09-30T02:32:41;100426.00;;;18.26
71205;BMP180;58935;54.498;18.544;2023-09-30T02:35:08;100426.60;;;18.26
71205;BMP180;58935;54.498;18.544;2023-09-30T02:37:34;100436.80;;;18.26
71205;BMP180;58935;54.498;18.544;2023-09-30T02:40:02;100437.60;;;18.28
71205;BMP180;58935;54.498;18.544;2023-09-30T02:42:29;100440.00;;;18.30
71205;BMP180;58935;54.498;18.544;2023-09-30T02:44:54;100436.20;;;18.30
71205;BMP180;58935;54.498;18.544;2023-09-30T02:47:20;100435.20;;;18.30
71205;BMP180;58935;54.498;18.544;2023-09-30T02:49:46;100440.40;;;18.30
71205;BMP180;58935;54.498;18.544;2023-09-30T02:52:11;100442.00;;;18.30
71205;BMP180;58935;54.498;18.544;2023-09-30T02:54:38;100447.00;;;18.30
71205;BMP180;58935;54.498;18.544;2023-09-30T02:57:03;100448.80;;;18.30
71205;BMP180;58935;54.498;18.544;2023-09-30T02:59:29;100454.00;;;18.30
71205;BMP180;58935;54.498;18.544;2023-09-30T03:01:54;100450.40;;;18.30
71205;BMP180;58935;54.498;18.544;2023-09-30T03:04:20;100456.80;;;18.30
71205;BMP180;58935;54.498;18.544;2023-09-30T03:06:46;100459.00;;;18.32
71205;BMP180;58935;54.498;18.544;2023-09-30T03:09:13;100460.20;;;18.36
71205;BMP180;58935;54.498;18.544;2023-09-30T03:11:40;100460.60;;;18.36
71205;BMP180;58935;54.498;18.544;2023-09-30T03:14:09;100461.80;;;18.38
71205;BMP180;58935;54.498;18.544;2023-09-30T03:16:34;100460.00;;;18.40
71205;BMP180;58935;54.498;18.544;2023-09-30T03:19:04;100462.20;;;18.40
71205;BMP180;58935;54.498;18.544;2023-09-30T03:21:34;100464.00;;;18.40
71205;BMP180;58935;54.498;18.544;2023-09-30T03:24:02;100467.20;;;18.40
71205;BMP180;58935;54.498;18.544;2023-09-30T03:26:29;100476.20;;;18.40
71205;BMP180;58935;54.498;18.544;2023-09-30T03:28:55;100481.60;;;18.40
71205;BMP180;58935;54.498;18.544;2023-09-30T03:31:20;100487.20;;;18.40
71205;BMP180;58935;54.498;18.544;2023-09-30T03:33:47;100486.60;;;18.40
71205;BMP180;58935;54.498;18.544;2023-09-30T03:36:13;100500.60;;;18.40
71205;BMP180;58935;54.498;18.544;2023-09-30T03:38:38;100502.40;;;18.30
71205;BMP180;58935;54.498;18.544;2023-09-30T03:41:04;100523.00;;;18.14
71205;BMP180;58935;54.498;18.544;2023-09-30T03:43:33;100542.40;;;17.90
71205;BMP180;58935;54.498;18.544;2023-09-30T03:46:00;100549.20;;;17.70
71205;BMP180;58935;54.498;18.544;2023-09-30T03:48:26;100548.80;;;17.50
71205;BMP180;58935;54.498;18.544;2023-09-30T03:50:51;100547.80;;;17.32
71205;BMP180;58935;54.498;18.544;2023-09-30T03:53:17;100548.00;;;17.20
71205;BMP180;58935;54.498;18.544;2023-09-30T03:55:43;100553.80;;;17.10
71205;BMP180;58935;54.498;18.544;2023-09-30T03:58:08;100560.20;;;17.00
71205;BMP180;58935;54.498;18.544;2023-09-30T04:00:33;100553.60;;;16.94
71205;BMP180;58935;54.498;18.544;2023-09-30T04:02:58;100567.60;;;16.90
71205;BMP180;58935;54.498;18.544;2023-09-30T04:05:25;100562.00;;;16.86
71205;BMP180;58935;54.498;18.544;2023-09-30T04:07:55;100576.20;;;16.80
71205;BMP180;58935;54.498;18.544;2023-09-30T04:10:21;100584.60;;;16.80
71205;BMP180;58935;54.498;18.544;2023-09-30T04:12:48;100582.80;;;16.76
71205;BMP180;58935;54.498;18.544;2023-09-30T04:15:13;100590.60;;;16.70
71205;BMP180;58935;54.498;18.544;2023-09-30T04:17:39;100597.40;;;16.70
71205;BMP180;58935;54.498;18.544;2023-09-30T04:20:06;100595.00;;;16.70
71205;BMP180;58935;54.498;18.544;2023-09-30T04:22:35;100605.20;;;16.60
71205;BMP180;58935;54.498;18.544;2023-09-30T04:25:00;100613.60;;;16.60
71205;BMP180;58935;54.498;18.544;2023-09-30T04:27:25;100614.00;;;16.50
71205;BMP180;58935;54.498;18.544;2023-09-30T04:29:52;100619.00;;;16.50
71205;BMP180;58935;54.498;18.544;2023-09-30T04:32:18;100619.00;;;16.40
71205;BMP180;58935;54.498;18.544;2023-09-30T04:34:44;100630.00;;;16.30
71205;BMP180;58935;54.498;18.544;2023-09-30T04:37:13;100623.20;;;16.20
71205;BMP180;58935;54.498;18.544;2023-09-30T04:39:39;100626.80;;;16.20
71205;BMP180;58935;54.498;18.544;2023-09-30T04:42:04;100628.40;;;16.10
71205;BMP180;58935;54.498;18.544;2023-09-30T04:44:30;100634.60;;;16.10
71205;BMP180;58935;54.498;18.544;2023-09-30T04:46:55;100634.20;;;16.10
71205;BMP180;58935;54.498;18.544;2023-09-30T04:49:21;100631.80;;;16.10
71205;BMP180;58935;54.498;18.544;2023-09-30T04:51:46;100638.00;;;16.10
71205;BMP180;58935;54.498;18.544;2023-09-30T04:54:14;100647.20;;;16.02
71205;BMP180;58935;54.498;18.544;2023-09-30T04:56:39;100645.80;;;16.00
71205;BMP180;58935;54.498;18.544;2023-09-30T04:59:04;100657.40;;;16.00
71205;BMP180;58935;54.498;18.544;2023-09-30T05:01:29;100659.80;;;15.90
71205;BMP180;58935;54.498;18.544;2023-09-30T05:03:55;100664.00;;;15.90
71205;BMP180;58935;54.498;18.544;2023-09-30T05:06:20;100665.80;;;15.90
71205;BMP180;58935;54.498;18.544;2023-09-30T05:08:47;100674.40;;;15.90
71205;BMP180;58935;54.498;18.544;2023-09-30T05:11:13;100682.40;;;15.90
71205;BMP180;58935;54.498;18.544;2023-09-30T05:13:38;100679.80;;;15.90
71205;BMP180;58935;54.498;18.544;2023-09-30T05:16:04;100681.20;;;15.80
71205;BMP180;58935;54.498;18.544;2023-09-30T05:18:29;100678.40;;;15.80
71205;BMP180;58935;54.498;18.544;2023-09-30T05:20:55;100679.40;;;15.72
71205;BMP180;58935;54.498;18.544;2023-09-30T05:23:21;100692.20;;;15.70
71205;BMP180;58935;54.498;18.544;2023-09-30T05:25:46;100700.40;;;15.64
71205;BMP180;58935;54.498;18.544;2023-09-30T05:28:12;100709.00;;;15.60
71205;BMP180;58935;54.498;18.544;2023-09-30T05:30:39;100710.60;;;15.52
71205;BMP180;58935;54.498;18.544;2023-09-30T05:33:06;100711.40;;;15.50
71205;BMP180;58935;54.498;18.544;2023-09-30T05:35:31;100704.20;;;15.48
71205;BMP180;58935;54.498;18.544;2023-09-30T05:37:57;100711.80;;;15.40
71205;BMP180;58935;54.498;18.544;2023-09-30T05:40:23;100715.00;;;15.40
71205;BMP180;58935;54.498;18.544;2023-09-30T05:42:51;100719.80;;;15.40
71205;BMP180;58935;54.498;18.544;2023-09-30T05:45:17;100716.40;;;15.30
71205;BMP180;58935;54.498;18.544;2023-09-30T05:47:42;100721.20;;;15.30
71205;BMP180;58935;54.498;18.544;2023-09-30T05:50:09;100723.80;;;15.30
71205;BMP180;58935;54.498;18.544;2023-09-30T05:52:35;100724.40;;;15.30
71205;BMP180;58935;54.498;18.544;2023-09-30T05:55:01;100728.00;;;15.20
71205;BMP180;58935;54.498;18.544;2023-09-30T05:57:27;100735.40;;;15.24
71205;BMP180;58935;54.498;18.544;2023-09-30T05:59:53;100742.20;;;15.20
71205;BMP180;58935;54.498;18.544;2023-09-30T06:02:18;100747.20;;;15.20
71205;BMP180;58935;54.498;18.544;2023-09-30T06:04:44;100745.80;;;15.20
71205;BMP180;58935;54.498;18.544;2023-09-30T06:07:11;100751.20;;;15.20
71205;BMP180;58935;54.498;18.544;2023-09-30T06:09:36;100751.20;;;15.20
71205;BMP180;58935;54.498;18.544;2023-09-30T06:12:01;100758.80;;;15.20
71205;BMP180;58935;54.498;18.544;2023-09-30T06:14:28;100756.00;;;15.20
71205;BMP180;58935;54.498;18.544;2023-09-30T06:16:56;100755.80;;;15.20
71205;BMP180;58935;54.498;18.544;2023-09-30T06:19:21;100756.80;;;15.20
71205;BMP180;58935;54.498;18.544;2023-09-30T06:21:46;100754.40;;;15.20
71205;BMP180;58935;54.498;18.544;2023-09-30T06:24:12;100755.80;;;15.20
71205;BMP180;58935;54.498;18.544;2023-09-30T06:26:37;100754.40;;;15.20
71205;BMP180;58935;54.498;18.544;2023-09-30T06:29:02;100766.20;;;15.20
71205;BMP180;58935;54.498;18.544;2023-09-30T06:31:28;100767.80;;;15.20
71205;BMP180;58935;54.498;18.544;2023-09-30T06:33:54;100767.40;;;15.20
71205;BMP180;58935;54.498;18.544;2023-09-30T06:36:23;100770.00;;;15.20
71205;BMP180;58935;54.498;18.544;2023-09-30T06:38:48;100762.40;;;15.20
71205;BMP180;58935;54.498;18.544;2023-09-30T06:41:16;100775.80;;;15.20
71205;BMP180;58935;54.498;18.544;2023-09-30T06:43:42;100772.80;;;15.22
71205;BMP180;58935;54.498;18.544;2023-09-30T06:46:08;100775.80;;;15.26
71205;BMP180;58935;54.498;18.544;2023-09-30T06:48:34;100776.40;;;15.26
71205;BMP180;58935;54.498;18.544;2023-09-30T06:51:00;100775.80;;;15.30
71205;BMP180;58935;54.498;18.544;2023-09-30T06:53:25;100779.80;;;15.30
71205;BMP180;58935;54.498;18.544;2023-09-30T06:55:50;100783.80;;;15.30
71205;BMP180;58935;54.498;18.544;2023-09-30T06:58:16;100782.80;;;15.30
71205;BMP180;58935;54.498;18.544;2023-09-30T07:00:47;100791.80;;;15.30
71205;BMP180;58935;54.498;18.544;2023-09-30T07:03:15;100798.40;;;15.40
71205;BMP180;58935;54.498;18.544;2023-09-30T07:05:40;100796.20;;;15.40
71205;BMP180;58935;54.498;18.544;2023-09-30T07:08:05;100799.60;;;15.40
71205;BMP180;58935;54.498;18.544;2023-09-30T07:10:31;100804.60;;;15.40
71205;BMP180;58935;54.498;18.544;2023-09-30T07:12:57;100803.40;;;15.50
71205;BMP180;58935;54.498;18.544;2023-09-30T07:15:22;100808.20;;;15.50
71205;BMP180;58935;54.498;18.544;2023-09-30T07:17:47;100803.60;;;15.60
71205;BMP180;58935;54.498;18.544;2023-09-30T07:20:13;100810.80;;;15.60
71205;BMP180;58935;54.498;18.544;2023-09-30T07:22:39;100810.60;;;15.60
71205;BMP180;58935;54.498;18.544;2023-09-30T07:25:05;100809.40;;;15.60
71205;BMP180;58935;54.498;18.544;2023-09-30T07:27:31;100816.40;;;15.68
71205;BMP180;58935;54.498;18.544;2023-09-30T07:29:56;100814.40;;;15.70
71205;BMP180;58935;54.498;18.544;2023-09-30T07:32:22;100816.60;;;15.70
71205;BMP180;58935;54.498;18.544;2023-09-30T07:34:49;100823.00;;;15.80
71205;BMP180;58935;54.498;18.544;2023-09-30T07:37:14;100828.40;;;15.90
71205;BMP180;58935;54.498;18.544;2023-09-30T07:39:40;100837.40;;;15.90
71205;BMP180;58935;54.498;18.544;2023-09-30T07:42:09;100830.20;;;15.98
71205;BMP180;58935;54.498;18.544;2023-09-30T07:44:34;100834.80;;;16.00
71205;BMP180;58935;54.498;18.544;2023-09-30T07:47:02;100829.60;;;16.00
71205;BMP180;58935;54.498;18.544;2023-09-30T07:49:29;100834.40;;;16.10
71205;BMP180;58935;54.498;18.544;2023-09-30T07:51:55;100836.40;;;16.10
71205;BMP180;58935;54.498;18.544;2023-09-30T07:54:20;100846.20;;;16.20
71205;BMP180;58935;54.498;18.544;2023-09-30T07:56:46;100845.20;;;16.20
71205;BMP180;58935;54.498;18.544;2023-09-30T07:59:11;100854.20;;;16.38
71205;BMP180;58935;54.498;18.544;2023-09-30T08:01:36;100848.60;;;16.50
71205;BMP180;58935;54.498;18.544;2023-09-30T08:04:02;100856.80;;;16.60
71205;BMP180;58935;54.498;18.544;2023-09-30T08:06:28;100862.00;;;16.60
71205;BMP180;58935;54.498;18.544;2023-09-30T08:08:53;100859.60;;;16.68
71205;BMP180;58935;54.498;18.544;2023-09-30T08:11:20;100865.60;;;16.60
71205;BMP180;58935;54.498;18.544;2023-09-30T08:13:46;100862.60;;;16.60
71205;BMP180;58935;54.498;18.544;2023-09-30T08:16:11;100864.80;;;16.60
71205;BMP180;58935;54.498;18.544;2023-09-30T08:18:37;100861.80;;;16.60
71205;BMP180;58935;54.498;18.544;2023-09-30T08:21:02;100864.20;;;16.60
71205;BMP180;58935;54.498;18.544;2023-09-30T08:23:27;100867.60;;;16.60
71205;BMP180;58935;54.498;18.544;2023-09-30T08:25:52;100863.00;;;16.60
71205;BMP180;58935;54.498;18.544;2023-09-30T08:28:19;100869.20;;;16.70
71205;BMP180;58935;54.498;18.544;2023-09-30T08:30:45;100875.80;;;16.74
71205;BMP180;58935;54.498;18.544;2023-09-30T08:33:11;100876.20;;;16.80
71205;BMP180;58935;54.498;18.544;2023-09-30T08:35:37;100875.80;;;16.80
71205;BMP180;58935;54.498;18.544;2023-09-30T08:38:03;100875.80;;;16.80
71205;BMP180;58935;54.498;18.544;2023-09-30T08:40:29;100874.80;;;16.80
71205;BMP180;58935;54.498;18.544;2023-09-30T08:42:54;100872.20;;;16.90
71205;BMP180;58935;54.498;18.544;2023-09-30T08:45:20;100878.20;;;16.90
71205;BMP180;58935;54.498;18.544;2023-09-30T08:47:46;100887.80;;;17.00
71205;BMP180;58935;54.498;18.544;2023-09-30T08:50:12;100886.80;;;17.00
71205;BMP180;58935;54.498;18.544;2023-09-30T08:52:40;100895.80;;;17.04
71205;BMP180;58935;54.498;18.544;2023-09-30T08:55:07;100895.60;;;17.00
71205;BMP180;58935;54.498;18.544;2023-09-30T08:57:37;100900.60;;;17.00
71205;BMP180;58935;54.498;18.544;2023-09-30T09:00:05;100903.40;;;17.00
71205;BMP180;58935;54.498;18.544;2023-09-30T09:02:34;100896.80;;;17.08
71205;BMP180;58935;54.498;18.544;2023-09-30T09:05:00;100896.40;;;17.20
71205;BMP180;58935;54.498;18.544;2023-09-30T09:07:26;100898.40;;;17.30
71205;BMP180;58935;54.498;18.544;2023-09-30T09:12:23;100907.80;;;17.40
71205;BMP180;58935;54.498;18.544;2023-09-30T09:14:48;100914.80;;;17.50
71205;BMP180;58935;54.498;18.544;2023-09-30T09:17:13;100917.20;;;17.50
71205;BMP180;58935;54.498;18.544;2023-09-30T09:19:39;100917.40;;;17.56
71205;BMP180;58935;54.498;18.544;2023-09-30T09:22:04;100918.40;;;17.50
71205;BMP180;58935;54.498;18.544;2023-09-30T09:24:33;100921.40;;;17.50
71205;BMP180;58935;54.498;18.544;2023-09-30T09:27:03;100933.00;;;17.50
71205;BMP180;58935;54.498;18.544;2023-09-30T09:29:29;100930.60;;;17.50
71205;BMP180;58935;54.498;18.544;2023-09-30T09:32:06;100935.40;;;17.52
71205;BMP180;58935;54.498;18.544;2023-09-30T09:34:32;100928.60;;;17.50
71205;BMP180;58935;54.498;18.544;2023-09-30T09:36:58;100928.00;;;17.52
71205;BMP180;58935;54.498;18.544;2023-09-30T09:41:55;100944.60;;;17.50
71205;BMP180;58935;54.498;18.544;2023-09-30T09:44:23;100939.00;;;17.50
71205;BMP180;58935;54.498;18.544;2023-09-30T09:46:51;100933.20;;;17.54
71205;BMP180;58935;54.498;18.544;2023-09-30T09:49:17;100933.40;;;17.60
71205;BMP180;58935;54.498;18.544;2023-09-30T09:51:44;100944.20;;;17.56
71205;BMP180;58935;54.498;18.544;2023-09-30T09:54:11;100936.60;;;17.50
71205;BMP180;58935;54.498;18.544;2023-09-30T09:56:38;100943.00;;;17.50
71205;BMP180;58935;54.498;18.544;2023-09-30T09:59:05;100933.20;;;17.50
71205;BMP180;58935;54.498;18.544;2023-09-30T10:01:33;100938.80;;;17.50
71205;BMP180;58935;54.498;18.544;2023-09-30T10:04:00;100938.60;;;17.60
71205;BMP180;58935;54.498;18.544;2023-09-30T10:06:27;100934.60;;;17.60
71205;BMP180;58935;54.498;18.544;2023-09-30T10:08:53;100937.60;;;17.60
71205;BMP180;58935;54.498;18.544;2023-09-30T10:11:20;100929.00;;;17.70
71205;BMP180;58935;54.498;18.544;2023-09-30T10:19:09;100931.40;;;18.10
71205;BMP180;58935;54.498;18.544;2023-09-30T10:21:35;100927.60;;;18.30
71205;BMP180;58935;54.498;18.544;2023-09-30T10:26:31;100951.00;;;18.40
71205;BMP180;58935;54.498;18.544;2023-09-30T10:29:09;100938.80;;;18.40
71205;BMP180;58935;54.498;18.544;2023-09-30T10:31:49;100953.80;;;18.40
71205;BMP180;58935;54.498;18.544;2023-09-30T10:34:19;100956.20;;;18.34
71205;BMP180;58935;54.498;18.544;2023-09-30T10:36:46;100959.60;;;18.30
71205;BMP180;58935;54.498;18.544;2023-09-30T10:39:12;100963.40;;;18.20
71205;BMP180;58935;54.498;18.544;2023-09-30T10:41:54;100966.80;;;18.10
71205;BMP180;58935;54.498;18.544;2023-09-30T10:44:35;100960.40;;;18.08
71205;BMP180;58935;54.498;18.544;2023-09-30T10:47:36;100964.40;;;18.00
71205;BMP180;58935;54.498;18.544;2023-09-30T10:50:01;100960.00;;;18.00
71205;BMP180;58935;54.498;18.544;2023-09-30T10:52:26;100960.80;;;18.10
71205;BMP180;58935;54.498;18.544;2023-09-30T10:54:52;100963.20;;;18.20
71205;BMP180;58935;54.498;18.544;2023-09-30T10:59:48;100970.00;;;18.48
71205;BMP180;58935;54.498;18.544;2023-09-30T11:02:18;100967.60;;;18.50
71205;BMP180;58935;54.498;18.544;2023-09-30T11:04:46;100971.40;;;18.50
71205;BMP180;58935;54.498;18.544;2023-09-30T11:07:11;100974.20;;;18.50
71205;BMP180;58935;54.498;18.544;2023-09-30T11:09:36;100978.80;;;18.60
71205;BMP180;58935;54.498;18.544;2023-09-30T11:12:02;100975.40;;;18.60
71205;BMP180;58935;54.498;18.544;2023-09-30T11:14:29;100978.40;;;18.70
71205;BMP180;58935;54.498;18.544;2023-09-30T11:17:00;100974.60;;;18.70
71205;BMP180;58935;54.498;18.544;2023-09-30T11:19:34;100966.40;;;18.62
71205;BMP180;58935;54.498;18.544;2023-09-30T11:22:00;100974.60;;;18.70
71205;BMP180;58935;54.498;18.544;2023-09-30T11:24:25;100970.80;;;18.70
71205;BMP180;58935;54.498;18.544;2023-09-30T11:26:53;100975.40;;;18.70
71205;BMP180;58935;54.498;18.544;2023-09-30T11:29:19;100976.00;;;18.74
71205;BMP180;58935;54.498;18.544;2023-09-30T11:31:47;100980.00;;;18.72
71205;BMP180;58935;54.498;18.544;2023-09-30T11:34:14;100987.40;;;18.70
71205;BMP180;58935;54.498;18.544;2023-09-30T11:36:56;100989.20;;;18.70
71205;BMP180;58935;54.498;18.544;2023-09-30T11:39:23;100975.80;;;18.60
71205;BMP180;58935;54.498;18.544;2023-09-30T11:41:50;100981.40;;;18.60
71205;BMP180;58935;54.498;18.544;2023-09-30T11:44:15;100971.20;;;18.60
71205;BMP180;58935;54.498;18.544;2023-09-30T11:49:25;100982.60;;;18.70
71205;BMP180;58935;54.498;18.544;2023-09-30T11:51:51;100979.00;;;18.80
71205;BMP180;58935;54.498;18.544;2023-09-30T11:54:16;100989.80;;;18.88
71205;BMP180;58935;54.498;18.544;2023-09-30T11:56:42;100978.80;;;19.00
71205;BMP180;58935;54.498;18.544;2023-09-30T11:59:07;100977.40;;;19.10
71205;BMP180;58935;54.498;18.544;2023-09-30T12:01:37;100973.20;;;19.30
71205;BMP180;58935;54.498;18.544;2023-09-30T12:04:03;100985.80;;;19.40
71205;BMP180;58935;54.498;18.544;2023-09-30T12:06:28;100980.00;;;19.46
71205;BMP180;58935;54.498;18.544;2023-09-30T12:08:54;100983.80;;;19.50
71205;BMP180;58935;54.498;18.544;2023-09-30T12:11:19;100974.80;;;19.60
71205;BMP180;58935;54.498;18.544;2023-09-30T12:13:44;100984.00;;;19.70
71205;BMP180;58935;54.498;18.544;2023-09-30T12:16:11;100992.20;;;19.60
71205;BMP180;58935;54.498;18.544;2023-09-30T12:18:38;101007.00;;;19.50
71205;BMP180;58935;54.498;18.544;2023-09-30T12:21:04;100995.20;;;19.34
71205;BMP180;58935;54.498;18.544;2023-09-30T12:23:31;101001.80;;;19.30
71205;BMP180;58935;54.498;18.544;2023-09-30T12:25:57;100987.20;;;19.20
71205;BMP180;58935;54.498;18.544;2023-09-30T12:28:22;100988.00;;;19.10
71205;BMP180;58935;54.498;18.544;2023-09-30T12:30:47;100996.60;;;19.10
71205;BMP180;58935;54.498;18.544;2023-09-30T12:33:12;100996.60;;;19.02
71205;BMP180;58935;54.498;18.544;2023-09-30T12:35:38;100991.40;;;19.00
71205;BMP180;58935;54.498;18.544;2023-09-30T12:38:03;100996.60;;;18.84
71205;BMP180;58935;54.498;18.544;2023-09-30T12:40:28;101008.20;;;18.70
71205;BMP180;58935;54.498;18.544;2023-09-30T12:42:54;101002.40;;;18.50
71205;BMP180;58935;54.498;18.544;2023-09-30T12:45:20;101002.40;;;18.40
71205;BMP180;58935;54.498;18.544;2023-09-30T12:47:45;100996.80;;;18.28
71205;BMP180;58935;54.498;18.544;2023-09-30T12:50:12;101010.60;;;18.20
71205;BMP180;58935;54.498;18.544;2023-09-30T12:52:37;101009.20;;;18.20
71205;BMP180;58935;54.498;18.544;2023-09-30T12:55:04;101008.00;;;18.30
71205;BMP180;58935;54.498;18.544;2023-09-30T12:57:30;101006.20;;;18.30
71205;BMP180;58935;54.498;18.544;2023-09-30T12:59:56;100988.00;;;18.38
71205;BMP180;58935;54.498;18.544;2023-09-30T13:02:22;101010.40;;;18.40
71205;BMP180;58935;54.498;18.544;2023-09-30T13:04:47;101012.60;;;18.40
71205;BMP180;58935;54.498;18.544;2023-09-30T13:07:12;101016.60;;;18.40
71205;BMP180;58935;54.498;18.544;2023-09-30T13:09:38;101010.60;;;18.30
71205;BMP180;58935;54.498;18.544;2023-09-30T13:12:05;101009.40;;;18.30
71205;BMP180;58935;54.498;18.544;2023-09-30T13:14:30;101014.00;;;18.20
71205;BMP180;58935;54.498;18.544;2023-09-30T13:16:55;101006.20;;;18.20
71205;BMP180;58935;54.498;18.544;2023-09-30T13:19:21;101012.60;;;18.16
71205;BMP180;58935;54.498;18.544;2023-09-30T13:21:47;101012.80;;;18.10
71205;BMP180;58935;54.498;18.544;2023-09-30T13:24:13;101001.60;;;18.10
71205;BMP180;58935;54.498;18.544;2023-09-30T13:26:39;101004.00;;;18.20
71205;BMP180;58935;54.498;18.544;2023-09-30T13:29:04;101004.60;;;18.30
71205;BMP180;58935;54.498;18.544;2023-09-30T13:31:31;101005.20;;;18.34
71205;BMP180;58935;54.498;18.544;2023-09-30T13:33:56;100994.60;;;18.36
71205;BMP180;58935;54.498;18.544;2023-09-30T13:36:22;100997.00;;;18.44
71205;BMP180;58935;54.498;18.544;2023-09-30T13:38:47;101003.80;;;18.50
71205;BMP180;58935;54.498;18.544;2023-09-30T13:41:14;100993.80;;;18.48
71205;BMP180;58935;54.498;18.544;2023-09-30T13:43:41;100993.00;;;18.44
71205;BMP180;58935;54.498;18.544;2023-09-30T13:46:06;100994.80;;;18.50
71205;BMP180;58935;54.498;18.544;2023-09-30T13:48:33;100986.20;;;18.40
71205;BMP180;58935;54.498;18.544;2023-09-30T13:53:30;101008.00;;;18.60
71205;BMP180;58935;54.498;18.544;2023-09-30T13:55:55;101014.40;;;18.60
71205;BMP180;58935;54.498;18.544;2023-09-30T13:58:20;101005.00;;;18.60
71205;BMP180;58935;54.498;18.544;2023-09-30T14:00:47;101002.40;;;18.60